This is the latest recevied weather packets stored in our database for station/object OE-11121. If no packets are shown the sender has not sent any weather packets the latest 10 day(s).
| Time | Temp. | Humidity | Pressure | Rain* | Wind** | Luminosity | Snow |
|---|---|---|---|---|---|---|---|
| 1787817932 | 20° C | 75% | 1015.9 hPa | 0 mm | - | 288 W/m² | - |
| 1787817332 | 20° C | 75% | 1016.1 hPa | 0 mm | - | 361 W/m² | - |
| 1787816505 | 19.44° C | 77% | 1016.1 hPa | 0 mm | - | 228 W/m² | - |
| 1787816132 | 19.44° C | 76% | 1016.3 hPa | 0 mm | - | 216 W/m² | - |
| 1787815527 | 18.89° C | 77% | 1016.3 hPa | 0 mm | - | 300 W/m² | - |
| 1787814706 | 18.89° C | 80% | 1016.5 hPa | 0 mm | - | 276 W/m² | - |
| 1787814333 | 18.33° C | 82% | 1016.7 hPa | 0 mm | - | 216 W/m² | - |
| 1787813733 | 17.78° C | 82% | 1016.7 hPa | 0 mm | - | 240 W/m² | - |
| 1787812906 | 17.78° C | 83% | 1016.8 hPa | 0 mm | - | 204 W/m² | - |
| 1787812533 | 17.22° C | 84% | 1016.9 hPa | 0 mm | - | 180 W/m² | - |
| 1787811933 | 17.22° C | 84% | 1017 hPa | 0 mm | - | 144 W/m² | - |
| 1787811345 | 17.22° C | 86% | 1017.1 hPa | 0 mm | - | 144 W/m² | - |
| 1787810733 | 16.67° C | 86% | 1017.3 hPa | 0 mm | - | 108 W/m² | - |
| 1787810133 | 16.67° C | 86% | 1017.2 hPa | 0 mm | - | 84 W/m² | - |
| 1787809306 | 16.67° C | 88% | 1017.1 hPa | 0 mm | - | 108 W/m² | - |
| 1787808933 | 16.11° C | 89% | 1017.1 hPa | 0 mm | - | 84 W/m² | - |
| 1787808333 | 15.56° C | 90% | 1017.3 hPa | 0 mm | - | 60 W/m² | - |
| 1787807506 | 15° C | 89% | 1017.6 hPa | 0 mm | - | 36 W/m² | - |
| 1787807133 | 15.56° C | 89% | 1017.4 hPa | 0 mm | - | 12 W/m² | - |
| 1787806533 | 15° C | 90% | 1017.7 hPa | 0 mm | - | 12 W/m² | - |
| 1787805333 | 15° C | 90% | 1017.6 hPa | 0 mm | - | 0 W/m² | - |
| 1787804733 | 15° C | 89% | 1017.7 hPa | 0 mm | - | 0 W/m² | - |
| 1787803906 | 15.56° C | 88% | 1017.4 hPa | 0 mm | - | 0 W/m² | - |
| 1787803533 | 15° C | 90% | 1017.6 hPa | 0 mm | - | 0 W/m² | - |
| 1787802933 | 15.56° C | 89% | 1017.4 hPa | 0 mm | - | 0 W/m² | - |
* Rain latest hour (hover to see other rain measurements)
** Current wind speed in m/s (hover to see current wind gust speed)